Arbil, Iraq
Current Conditions -  °F | °C
As of 5:00 AM on Tuesday 21 Oct 2014 (Local Time) from ORER Reporting Station
Haze Haze  
Wind Chill: 59°   Ceiling: 5000
Heat Index: 59°   Visibility: 3mi
Dew Point: 59°   Wind: 12mph
Humidity: 100%   Direction: 150°SSE
Pressure: 29.8"   Gusts: NA
Location:  36.19°N, 44.01°E
Report Text: ORER 210200Z 15010KT 5000 BR BKN050 15/15 Q1009 NOSIG
Loading
Personal Weather Stations






























Interactive Weather Map New forecast layout! Learn more

10-Day Weather Forecast

Advertisements
Track Severe Weather on mobile